createdAt,value
2023-03-02T00:12:26.006Z,26.75
2023-03-02T00:27:26.326Z,25.04
2023-03-02T00:42:25.423Z,29.8
2023-03-02T00:57:25.731Z,28.7
2023-03-02T01:12:25.853Z,21.64
2023-03-02T01:27:25.404Z,19.39
2023-03-02T01:42:25.605Z,19.06
2023-03-02T01:57:25.962Z,18.82
2023-03-02T02:12:25.976Z,17.58
2023-03-02T02:27:25.328Z,16.54
2023-03-02T02:42:25.842Z,16.21
2023-03-02T02:57:25.908Z,14.35
2023-03-02T03:12:25.676Z,13.6
2023-03-02T03:27:25.600Z,10.94
2023-03-02T03:42:25.296Z,12.9
2023-03-02T03:57:25.610Z,13.9
2023-03-02T04:12:26.030Z,17.91
2023-03-02T04:27:25.378Z,10.81
2023-03-02T04:42:25.887Z,11.44
2023-03-02T04:57:25.509Z,23.71
2023-03-02T05:12:25.299Z,12.9
2023-03-02T05:27:25.900Z,13.6
2023-03-02T05:42:26.196Z,9.61
2023-03-02T05:57:26.632Z,8.34
2023-03-02T06:12:25.459Z,28.36
2023-03-02T06:27:26.101Z,19.93
2023-03-02T06:42:25.897Z,36.71
2023-03-02T06:57:25.877Z,16.18
2023-03-02T07:12:26.186Z,10.68
2023-03-02T07:27:26.546Z,10.07
2023-03-02T07:42:25.886Z,32.05
2023-03-02T07:57:25.884Z,12.01
2023-03-02T08:12:25.360Z,13.5
2023-03-02T08:27:25.408Z,11.85
2023-03-02T08:42:25.350Z,26.67
2023-03-02T08:57:25.906Z,18.17
2023-03-02T09:12:26.070Z,14.09
2023-03-02T09:27:25.580Z,11.58
2023-03-02T09:42:34.997Z,13.63
2023-03-02T09:57:25.926Z,9.52
2023-03-02T10:12:25.789Z,6.57
2023-03-02T10:27:26.115Z,8.94
2023-03-02T10:42:25.738Z,5
2023-03-02T10:57:25.645Z,19.45
2023-03-02T11:12:25.665Z,23.09
2023-03-02T11:27:25.837Z,21.99
2023-03-02T11:42:26.255Z,21.31
2023-03-02T11:57:26.174Z,22.32
2023-03-02T12:12:26.119Z,22.64
2023-03-02T12:27:26.077Z,23.49
2023-03-02T12:42:26.063Z,25.21
2023-03-02T12:57:25.932Z,26.42
2023-03-02T13:12:25.989Z,29.32
2023-03-02T13:27:25.946Z,31.18
2023-03-02T13:42:26.329Z,32.01
2023-03-02T13:57:26.216Z,32.68
2023-03-02T14:12:26.223Z,31.35
2023-03-02T14:27:25.962Z,36.09
2023-03-02T14:42:26.180Z,35.58
2023-03-02T14:57:26.100Z,38.52
2023-03-02T15:12:25.686Z,35.85
2023-03-02T15:27:26.152Z,36.3
2023-03-02T15:42:25.578Z,37.69
2023-03-02T15:57:26.012Z,39.27
2023-03-02T16:12:25.924Z,40.2
2023-03-02T16:27:25.897Z,41.47
2023-03-02T16:42:25.448Z,44.72
2023-03-02T16:57:31.138Z,46.08
2023-03-02T17:12:25.254Z,41.58
2023-03-02T17:27:25.993Z,36.17
2023-03-02T17:42:25.615Z,38.36
2023-03-02T17:57:25.586Z,44.47
2023-03-02T18:12:25.345Z,43.29
2023-03-02T18:27:25.952Z,44.08
2023-03-02T18:42:25.859Z,35.02
2023-03-02T18:57:25.357Z,37.4
2023-03-02T19:12:25.425Z,30.76
2023-03-02T19:27:25.411Z,31.73
2023-03-02T19:42:25.524Z,28.25
2023-03-02T19:57:25.427Z,27.84
2023-03-02T20:12:25.729Z,30.13
2023-03-02T20:27:25.981Z,26.78
2023-03-02T20:42:25.869Z,26.25
2023-03-02T20:57:25.325Z,26.19
2023-03-02T21:12:25.237Z,23.64
2023-03-02T21:27:30.257Z,22.22
2023-03-02T21:42:25.579Z,21.8
2023-03-02T21:57:25.795Z,19.24
2023-03-02T22:12:25.345Z,21.16
2023-03-02T22:27:25.404Z,20.78
2023-03-02T22:42:25.973Z,17.75
2023-03-02T22:57:25.344Z,20.23
2023-03-02T23:12:25.509Z,21.23
2023-03-02T23:27:25.815Z,22.22
2023-03-02T23:42:25.903Z,23.91
2023-03-02T23:57:25.576Z,25.24
